createdAt,value
2022-12-06T00:01:26.581Z,7.78
2022-12-06T00:03:58.930Z,8.02
2022-12-06T00:06:28.271Z,7.32
2022-12-06T00:08:56.703Z,8.32
2022-12-06T00:11:29.995Z,7.90
2022-12-06T00:13:59.613Z,9.25
2022-12-06T00:16:27.476Z,7.82
2022-12-06T00:18:54.684Z,7.35
2022-12-06T00:21:30.494Z,8.20
2022-12-06T00:24:00.760Z,8.20
2022-12-06T00:26:28.887Z,7.43
2022-12-06T00:28:58.207Z,8.02
2022-12-06T00:31:27.020Z,8.43
2022-12-06T00:33:54.554Z,7.90
2022-12-06T00:36:41.215Z,7.03
2022-12-06T00:39:10.462Z,7.90
2022-12-06T00:41:37.529Z,6.95
2022-12-06T00:44:04.673Z,7.68
2022-12-06T00:46:32.670Z,7.57
2022-12-06T00:49:01.185Z,6.38
2022-12-06T00:51:29.742Z,6.13
2022-12-06T00:53:57.053Z,7.22
2022-12-06T00:56:23.883Z,7.57
2022-12-06T00:58:50.955Z,7.72
2022-12-06T01:01:21.433Z,6.82
2022-12-06T01:03:51.974Z,6.72
2022-12-06T01:06:22.958Z,5.57
2022-12-06T01:08:50.301Z,8.05
2022-12-06T01:11:17.631Z,6.13
2022-12-06T01:13:44.521Z,7.07
2022-12-06T01:16:23.752Z,6.32
2022-12-06T01:18:56.099Z,5.75
2022-12-06T01:21:23.496Z,6.10
2022-12-06T01:23:50.766Z,6.00
2022-12-06T01:26:24.145Z,5.90
2022-12-06T01:28:51.062Z,5.60
2022-12-06T01:31:18.390Z,5.85
2022-12-06T01:33:45.257Z,7.15
2022-12-06T01:36:24.905Z,6.30
2022-12-06T01:38:53.575Z,6.63
2022-12-06T01:41:22.227Z,6.50
2022-12-06T01:43:50.470Z,5.80
2022-12-06T01:46:32.327Z,6.20
2022-12-06T01:49:15.125Z,5.80
2022-12-06T01:51:45.789Z,6.78
2022-12-06T01:54:16.009Z,5.45
2022-12-06T01:56:43.215Z,6.22
2022-12-06T01:59:11.433Z,6.57
2022-12-06T02:01:40.268Z,5.93
2022-12-06T02:04:08.703Z,6.03
2022-12-06T02:06:35.526Z,6.00
2022-12-06T02:09:06.059Z,5.57
2022-12-06T02:11:35.471Z,5.60
2022-12-06T02:14:05.611Z,6.53
2022-12-06T02:17:03.811Z,6.25
2022-12-06T02:19:55.033Z,6.28
2022-12-06T02:22:34.460Z,4.88
2022-12-06T02:25:19.967Z,5.45
2022-12-06T02:27:58.713Z,5.88
2022-12-06T02:30:43.707Z,5.18
2022-12-06T02:33:27.495Z,5.82
2022-12-06T02:36:03.735Z,6.03
2022-12-06T02:38:39.050Z,5.63
2022-12-06T02:41:16.913Z,5.70
2022-12-06T02:43:50.669Z,6.43
2022-12-06T02:46:21.303Z,6.53
2022-12-06T02:48:50.735Z,5.80
2022-12-06T02:51:19.690Z,5.10
2022-12-06T02:53:49.948Z,5.72
2022-12-06T02:56:18.476Z,5.47
2022-12-06T02:58:45.283Z,5.28
2022-12-06T03:01:25.601Z,6.15
2022-12-06T03:04:02.677Z,5.45
2022-12-06T03:06:52.661Z,6.13
2022-12-06T03:09:26.515Z,5.72
2022-12-06T03:11:56.579Z,4.93
2022-12-06T03:14:26.579Z,5.22
2022-12-06T03:17:33.249Z,6.07
2022-12-06T03:20:08.246Z,5.90
2022-12-06T03:22:40.193Z,5.70
2022-12-06T03:25:09.321Z,5.05
2022-12-06T03:27:36.682Z,4.88
2022-12-06T03:30:08.258Z,5.78
2022-12-06T03:32:38.374Z,5.72
2022-12-06T03:35:09.075Z,5.15
2022-12-06T03:37:39.944Z,4.57
2022-12-06T03:40:16.705Z,6.25
2022-12-06T03:42:43.816Z,5.90
2022-12-06T03:45:12.246Z,4.57
2022-12-06T03:48:05.793Z,5.47
2022-12-06T03:50:40.268Z,6.20
2022-12-06T03:53:07.219Z,5.22
2022-12-06T03:55:33.930Z,5.05
2022-12-06T04:00:27.643Z,3.38
2022-12-06T04:02:54.342Z,5.32
2022-12-06T04:05:21.395Z,4.60
2022-12-06T04:07:48.420Z,4.75
2022-12-06T04:10:15.289Z,5.32
2022-12-06T04:13:00.496Z,5.30
2022-12-06T04:15:36.699Z,5.75
2022-12-06T04:18:15.763Z,4.80
2022-12-06T04:21:07.233Z,5.13
2022-12-06T04:23:39.678Z,4.57
2022-12-06T04:26:09.402Z,4.40
2022-12-06T04:28:54.929Z,4.97
2022-12-06T04:31:41.094Z,4.63
2022-12-06T04:34:26.664Z,4.30
2022-12-06T04:37:12.005Z,4.75
2022-12-06T04:39:38.828Z,4.22
2022-12-06T04:42:24.795Z,4.57
2022-12-06T04:44:51.642Z,4.55
2022-12-06T04:47:18.910Z,4.88
2022-12-06T04:49:45.638Z,4.65
2022-12-06T04:52:12.847Z,4.88
2022-12-06T04:54:40.570Z,4.22
2022-12-06T04:57:11.015Z,4.72
2022-12-06T04:59:39.986Z,4.00
2022-12-06T05:02:07.943Z,4.25
2022-12-06T05:04:34.792Z,4.70
2022-12-06T05:07:01.865Z,4.32
2022-12-06T05:09:28.724Z,4.82
2022-12-06T05:11:55.904Z,4.40
2022-12-06T05:14:22.697Z,4.28
2022-12-06T05:16:49.623Z,4.38
2022-12-06T05:19:16.499Z,4.07
2022-12-06T05:21:43.342Z,4.10
2022-12-06T05:24:10.203Z,4.40
2022-12-06T05:26:37.057Z,3.72
2022-12-06T05:29:04.398Z,4.40
2022-12-06T05:31:31.120Z,4.50
2022-12-06T05:33:57.971Z,4.25
2022-12-06T05:36:26.747Z,4.20
2022-12-06T05:38:54.131Z,4.47
2022-12-06T05:41:22.933Z,4.75
2022-12-06T05:43:49.895Z,5.30
2022-12-06T05:46:17.036Z,4.25
2022-12-06T05:48:44.693Z,4.10
2022-12-06T05:51:11.864Z,3.97
2022-12-06T05:53:39.141Z,3.88
2022-12-06T05:56:09.123Z,3.95
2022-12-06T05:58:36.834Z,3.63
2022-12-06T06:01:04.719Z,3.78
2022-12-06T06:03:31.641Z,3.72
2022-12-06T06:06:00.831Z,3.70
2022-12-06T06:08:28.715Z,4.13
2022-12-06T06:10:56.439Z,3.90
2022-12-06T06:13:23.757Z,3.58
2022-12-06T06:15:50.610Z,4.03
2022-12-06T06:18:18.648Z,4.43
2022-12-06T06:20:53.113Z,3.72
2022-12-06T06:23:21.015Z,4.45
2022-12-06T06:25:48.467Z,3.70
2022-12-06T06:28:15.254Z,4.00
2022-12-06T06:30:42.122Z,3.42
2022-12-06T06:33:09.768Z,3.63
2022-12-06T06:35:37.747Z,4.50
2022-12-06T06:38:04.748Z,4.20
2022-12-06T06:40:31.931Z,4.38
2022-12-06T06:43:17.825Z,4.07
2022-12-06T06:45:56.050Z,3.65
2022-12-06T06:48:24.910Z,4.15
2022-12-06T06:50:56.901Z,4.03
2022-12-06T06:53:26.278Z,4.80
2022-12-06T06:55:54.283Z,4.50
2022-12-06T06:58:21.476Z,3.88
2022-12-06T07:00:56.838Z,4.07
2022-12-06T07:03:24.780Z,4.85
2022-12-06T07:05:53.506Z,4.90
2022-12-06T07:08:20.680Z,4.30
2022-12-06T07:10:48.798Z,5.35
2022-12-06T07:13:17.094Z,4.80
2022-12-06T07:15:44.231Z,3.95
2022-12-06T07:18:10.985Z,5.25
2022-12-06T07:20:37.813Z,4.70
2022-12-06T07:23:05.016Z,5.30
2022-12-06T07:25:34.469Z,5.25
2022-12-06T07:28:01.354Z,5.32
2022-12-06T07:30:28.448Z,5.20
2022-12-06T07:32:55.253Z,5.28
2022-12-06T07:35:22.159Z,5.28
2022-12-06T07:37:48.991Z,4.75
2022-12-06T07:40:16.866Z,4.60
2022-12-06T07:43:02.768Z,5.90
2022-12-06T07:45:29.738Z,5.70
2022-12-06T07:47:56.496Z,6.00
2022-12-06T07:50:24.205Z,5.43
2022-12-06T07:52:51.218Z,5.75
2022-12-06T07:55:18.457Z,5.80
2022-12-06T07:57:45.328Z,5.70
2022-12-06T08:00:15.655Z,5.88
2022-12-06T08:02:42.708Z,6.38
2022-12-06T08:05:09.590Z,7.35
2022-12-06T08:07:36.359Z,6.72
2022-12-06T08:12:32.263Z,7.25
2022-12-06T08:14:59.942Z,7.43
2022-12-06T08:17:27.549Z,6.97
2022-12-06T08:19:54.418Z,6.88
2022-12-06T08:22:21.253Z,6.70
2022-12-06T08:27:15.157Z,7.85
2022-12-06T08:29:45.033Z,7.57
2022-12-06T08:32:12.067Z,7.18
2022-12-06T08:34:38.881Z,6.60
2022-12-06T08:37:05.731Z,5.43
2022-12-06T16:20:13.132Z,18.75
2022-12-06T16:22:58.405Z,18.63
2022-12-06T16:25:25.048Z,22.17
2022-12-06T16:27:51.701Z,23.23
2022-12-06T16:30:34.085Z,35.30
2022-12-06T16:33:05.936Z,32.70
2022-12-06T16:35:34.862Z,27.95
2022-12-06T16:38:01.493Z,25.75
2022-12-06T16:40:28.863Z,23.70
2022-12-06T16:42:55.571Z,26.30
2022-12-06T16:45:22.233Z,22.33
2022-12-06T16:50:25.226Z,22.00
2022-12-06T16:52:52.565Z,23.58
2022-12-06T16:55:19.709Z,25.85
2022-12-06T16:57:46.778Z,26.90
2022-12-06T17:00:14.356Z,21.67
2022-12-06T17:02:41.184Z,31.17
2022-12-06T17:07:35.965Z,27.60
2022-12-06T17:10:03.213Z,29.52
2022-12-06T17:12:30.069Z,25.35
2022-12-06T17:17:26.030Z,28.15
2022-12-06T17:19:52.694Z,28.02
2022-12-06T17:24:46.404Z,28.85
2022-12-06T17:27:14.654Z,34.80
2022-12-06T17:29:43.322Z,38.65
2022-12-06T17:32:10.566Z,38.55
2022-12-06T17:34:38.020Z,39.33
2022-12-06T17:37:06.009Z,39.17
2022-12-06T17:39:32.777Z,34.17
2022-12-06T17:42:18.148Z,33.90
2022-12-06T17:44:45.877Z,33.38
2022-12-06T17:47:12.556Z,32.00
2022-12-06T17:52:06.154Z,31.75
2022-12-06T17:54:32.813Z,29.90
2022-12-06T17:59:30.100Z,26.63
2022-12-06T18:02:17.095Z,26.30
2022-12-06T18:04:45.032Z,28.25
2022-12-06T18:07:13.120Z,27.00
2022-12-06T18:09:40.109Z,25.08
2022-12-06T18:12:09.191Z,26.13
2022-12-06T18:15:38.375Z,24.63
2022-12-06T18:18:05.943Z,26.88
2022-12-06T18:20:32.728Z,23.27
2022-12-06T18:25:25.987Z,24.15
2022-12-06T18:30:19.621Z,23.60
2022-12-06T18:32:46.371Z,22.85
2022-12-06T18:37:39.916Z,23.40
2022-12-06T18:42:34.185Z,23.23
2022-12-06T18:45:01.150Z,22.70
2022-12-06T18:47:27.903Z,21.40
2022-12-06T18:49:56.386Z,22.13
2022-12-06T18:52:23.152Z,21.55
2022-12-06T18:57:16.445Z,21.38
2022-12-06T19:02:10.817Z,23.65
2022-12-06T19:04:37.618Z,24.70
2022-12-06T19:07:04.352Z,28.85
2022-12-06T19:11:57.725Z,24.08
2022-12-06T19:16:51.832Z,20.83
2022-12-06T19:19:22.519Z,22.73
2022-12-06T19:21:50.149Z,24.40
2022-12-06T19:24:20.733Z,22.58
2022-12-06T19:26:48.862Z,21.33
2022-12-06T19:29:16.250Z,23.20
2022-12-06T19:31:43.716Z,20.48
2022-12-06T19:34:22.287Z,19.92
2022-12-06T19:36:50.916Z,19.80
2022-12-06T19:39:18.566Z,23.35
2022-12-06T19:42:04.105Z,21.85
2022-12-06T19:44:30.967Z,18.00
2022-12-06T19:46:58.198Z,16.85
2022-12-06T19:49:26.363Z,19.38
2022-12-06T19:51:53.216Z,19.10
2022-12-06T19:54:31.384Z,19.77
2022-12-06T19:57:00.481Z,20.25
2022-12-06T19:59:30.318Z,17.70
2022-12-06T20:02:00.000Z,18.27
2022-12-06T20:04:35.653Z,19.70
2022-12-06T20:07:03.840Z,17.73
2022-12-06T20:09:31.429Z,18.30
2022-12-06T20:12:03.930Z,17.58
2022-12-06T20:14:43.937Z,16.95
2022-12-06T20:17:16.760Z,16.58
2022-12-06T20:19:46.016Z,16.73
2022-12-06T20:22:14.277Z,16.25
2022-12-06T20:24:40.946Z,17.55
2022-12-06T20:29:34.422Z,16.50
2022-12-06T20:34:33.916Z,17.90
2022-12-06T20:37:03.552Z,16.05
2022-12-06T20:39:32.825Z,18.58
2022-12-06T20:42:00.034Z,16.65
2022-12-06T20:44:26.789Z,17.48
2022-12-06T20:49:21.055Z,20.63
2022-12-06T20:54:20.485Z,17.55
2022-12-06T20:56:50.721Z,19.33
2022-12-06T20:59:17.492Z,19.33
2022-12-06T21:04:13.457Z,18.92
2022-12-06T21:06:40.928Z,17.98
2022-12-06T21:09:07.662Z,19.80
2022-12-06T21:14:00.987Z,19.10
2022-12-06T21:19:02.482Z,20.98
2022-12-06T21:21:38.078Z,20.65
2022-12-06T21:24:10.812Z,19.33
2022-12-06T21:26:37.747Z,18.98
2022-12-06T21:29:05.008Z,18.60
2022-12-06T21:31:37.244Z,19.40
2022-12-06T21:34:04.372Z,18.65
2022-12-06T21:36:32.052Z,20.92
2022-12-06T21:38:59.063Z,17.90
2022-12-06T21:41:26.695Z,20.67
2022-12-06T21:43:53.556Z,23.33
2022-12-06T21:46:22.977Z,26.05
2022-12-06T21:48:51.796Z,29.52
2022-12-06T21:51:19.006Z,28.40
2022-12-06T21:53:45.718Z,24.92
2022-12-06T21:58:41.667Z,23.55
2022-12-06T22:03:50.190Z,18.40
2022-12-06T22:06:17.398Z,19.13
2022-12-06T22:08:45.121Z,20.23
2022-12-06T22:11:17.445Z,19.75
2022-12-06T22:13:44.867Z,22.67
2022-12-06T22:16:13.376Z,23.40
2022-12-06T22:18:45.466Z,25.95
2022-12-06T22:21:20.956Z,23.17
2022-12-06T22:23:48.575Z,26.20
2022-12-06T22:26:18.579Z,27.15
2022-12-06T22:28:46.266Z,27.92
2022-12-06T22:31:25.419Z,29.90
2022-12-06T22:33:53.355Z,31.55
2022-12-06T22:36:21.340Z,30.20
2022-12-06T22:38:49.864Z,27.30
2022-12-06T22:41:17.167Z,27.58
2022-12-06T22:43:44.329Z,28.10
2022-12-06T22:46:13.625Z,28.10
2022-12-06T22:48:40.871Z,27.73
2022-12-06T22:51:22.428Z,27.45
2022-12-06T22:53:54.360Z,29.35
2022-12-06T22:56:21.866Z,30.70
2022-12-06T22:58:48.725Z,30.52
2022-12-06T23:01:18.079Z,29.27
2022-12-06T23:03:46.490Z,30.02
2022-12-06T23:06:14.354Z,31.13
2022-12-06T23:08:41.542Z,30.13
2022-12-06T23:11:19.959Z,30.00
2022-12-06T23:13:46.692Z,31.95
2022-12-06T23:18:42.301Z,29.45
2022-12-06T23:21:19.289Z,30.40
2022-12-06T23:23:48.386Z,28.95
2022-12-06T23:26:21.326Z,29.67
2022-12-06T23:28:48.468Z,31.55
2022-12-06T23:31:16.448Z,30.27
2022-12-06T23:33:44.532Z,33.42
2022-12-06T23:36:13.245Z,38.45
2022-12-06T23:38:41.265Z,34.92
2022-12-06T23:41:14.166Z,37.72
2022-12-06T23:43:41.250Z,33.25
2022-12-06T23:46:11.289Z,37.03
2022-12-06T23:48:38.345Z,41.83
2022-12-06T23:51:11.600Z,35.55
2022-12-06T23:53:39.339Z,34.83
2022-12-06T23:56:17.780Z,39.03
2022-12-06T23:58:45.757Z,36.40
